Pine Hills, Florida
Current Conditions -  °F | °C
As of 10:07 AM on Wednesday 26 Nov 2014 (Local Time) from KORL Reporting Station
Overcast Overcast  
Wind Chill: 55°   Ceiling: 900
Heat Index: 55°   Visibility: 10mi
Dew Point: 52°   Wind: 12mph
Humidity: 88%   Direction: 320°NW
Pressure: 30.13"   Gusts: NA
Location:  28.55°N, 81.45°W
Report Text: KORL 261507Z 32010KT 10SM BKN009 OVC120 13/11 A3013
Loading
Personal Weather Stations






























Interactive Weather Map New forecast layout! Learn more

10-Day Weather Forecast

Advertisements
Track Severe Weather on mobile